Time;durP1;ratioP1;P1;durP2;ratioP2;P2;SDS_P1;SDS_P2;PMS_P1;PMS_P2;Temp;Humidity;BMP_temperature;BMP_pressure;BME280_temperature;BME280_humidity;BME280_pressure;Samples;Min_cycle;Max_cycle;Signal;HPM_P1;HPM_P2
2024/01/05 00:01:15;;;;;;;9.27;4.43;;;;;;;-1.11;100.00;100150.19;7320071;19;20199;-43
2024/01/05 00:03:44;;;;;;;7.05;4.05;;;;;;;-1.10;100.00;100146.88;7342278;19;20227;-44
2024/01/05 00:06:14;;;;;;;8.75;4.07;;;;;;;-1.21;100.00;100148.56;7321969;19;20289;-41
2024/01/05 00:08:44;;;;;;;11.60;5.88;;;;;;;-1.18;100.00;100151.31;7342369;19;20245;-41
2024/01/05 00:11:18;;;;;;;8.32;4.20;;;;;;;-1.15;100.00;100153.22;7322023;19;20258;-41
2024/01/05 00:13:48;;;;;;;9.73;4.35;;;;;;;-1.13;100.00;100161.84;7341645;19;20678;-41
2024/01/05 00:16:21;;;;;;;9.82;4.20;;;;;;;-1.25;100.00;100157.56;7321650;19;20198;-41
2024/01/05 00:18:52;;;;;;;8.75;4.28;;;;;;;-0.96;100.00;100168.22;7341449;19;20189;-41
2024/01/05 00:21:23;;;;;;;10.95;4.30;;;;;;;-0.85;100.00;100164.91;7319683;19;20699;-43
2024/01/05 00:23:53;;;;;;;10.60;4.80;;;;;;;-0.72;100.00;100160.78;7337691;19;20223;-40
2024/01/05 00:26:23;;;;;;;14.90;4.70;;;;;;;-0.65;100.00;100152.88;7342600;19;20186;-42
2024/01/05 00:28:53;;;;;;;11.38;5.18;;;;;;;-0.61;100.00;100147.25;7337325;19;20197;-41
2024/01/05 00:31:25;;;;;;;7.13;4.03;;;;;;;-0.62;100.00;100142.09;7349765;19;20655;-41
2024/01/05 00:33:55;;;;;;;9.60;4.55;;;;;;;-0.63;100.00;100132.69;7326785;19;20704;-42
2024/01/05 00:36:25;;;;;;;10.00;5.15;;;;;;;-0.61;100.00;100126.97;7348559;19;20846;-42
2024/01/05 00:38:54;;;;;;;12.80;5.40;;;;;;;-0.57;100.00;100125.56;7326293;19;20215;-41
2024/01/05 00:41:24;;;;;;;10.60;4.50;;;;;;;-0.58;100.00;100108.59;7348728;19;20269;-41
2024/01/05 00:43:54;;;;;;;10.70;4.47;;;;;;;-0.70;100.00;100114.53;7329353;19;20198;-41
2024/01/05 00:46:26;;;;;;;9.77;4.70;;;;;;;-0.63;100.00;100115.84;7350031;19;20204;-41
2024/01/05 00:48:57;;;;;;;8.07;3.93;;;;;;;-0.83;100.00;100121.91;7326162;19;20257;-41
2024/01/05 00:51:27;;;;;;;13.88;4.00;;;;;;;-0.93;100.00;100114.41;7349226;19;20438;-42
2024/01/05 00:53:56;;;;;;;6.80;3.97;;;;;;;-0.99;100.00;100115.69;7325381;19;20190;-41
2024/01/05 00:56:26;;;;;;;15.23;6.40;;;;;;;-1.02;100.00;100123.03;7349566;19;20926;-41
2024/01/05 00:58:56;;;;;;;12.00;4.80;;;;;;;-1.02;100.00;100115.44;7326283;19;20194;-45
2024/01/05 01:01:28;;;;;;;7.03;3.65;;;;;;;-1.00;100.00;100113.91;7346761;19;20200;-42
2024/01/05 01:03:58;;;;;;;10.25;4.70;;;;;;;-1.05;100.00;100114.31;7326319;19;20198;-41
2024/01/05 01:06:28;;;;;;;20.48;8.35;;;;;;;-1.02;100.00;100124.69;7349566;19;22465;-41
2024/01/05 01:08:57;;;;;;;8.98;4.57;;;;;;;-1.01;100.00;100119.75;7325933;19;20201;-41
2024/01/05 01:11:27;;;;;;;9.95;4.70;;;;;;;-1.08;100.00;100122.53;7349673;19;20261;-42
2024/01/05 01:13:57;;;;;;;13.75;5.70;;;;;;;-1.08;100.00;100130.13;7325507;19;20947;-42
2024/01/05 01:16:29;;;;;;;11.15;5.15;;;;;;;-1.07;100.00;100128.50;7348670;19;20190;-42
2024/01/05 01:18:58;;;;;;;8.13;4.13;;;;;;;-1.10;100.00;100129.16;7326244;19;20207;-42
2024/01/05 01:21:28;;;;;;;15.23;6.47;;;;;;;-1.14;100.00;100135.63;7347105;19;20189;-43
2024/01/05 01:23:58;;;;;;;11.45;4.82;;;;;;;-1.11;100.00;100142.56;7323865;19;20202;-41
2024/01/05 01:26:28;;;;;;;8.75;4.55;;;;;;;-1.17;100.00;100147.16;7348034;19;20205;-41
2024/01/05 01:28:57;;;;;;;9.27;4.40;;;;;;;-1.15;100.00;100153.22;7325662;19;20914;-42
2024/01/05 01:31:32;;;;;;;8.95;4.20;;;;;;;-1.15;100.00;100149.06;7348234;19;20415;-42
2024/01/05 01:34:02;;;;;;;6.32;3.67;;;;;;;-1.18;100.00;100145.41;7325351;19;20205;-42
2024/01/05 01:36:31;;;;;;;8.93;4.15;;;;;;;-1.08;100.00;100145.34;7348418;19;20676;-43
2024/01/05 01:39:04;;;;;;;13.82;5.78;;;;;;;-1.03;100.00;100136.47;7326459;19;20678;-40
2024/01/05 01:41:34;;;;;;;7.65;4.22;;;;;;;-1.00;100.00;100124.06;7346750;19;20208;-40
2024/01/05 01:44:04;;;;;;;16.10;3.97;;;;;;;-1.08;100.00;100132.69;7325548;19;20261;-41
2024/01/05 01:46:37;;;;;;;8.77;4.55;;;;;;;-1.04;100.00;100116.97;7347757;19;20200;-40
2024/01/05 01:49:07;;;;;;;7.88;4.60;;;;;;;-1.02;100.00;100114.56;7326249;19;20200;-43
2024/01/05 01:51:37;;;;;;;10.43;4.72;;;;;;;-1.03;100.00;100115.34;7347472;19;20193;-42
2024/01/05 01:54:08;;;;;;;9.38;4.15;;;;;;;-1.08;100.00;100117.47;7325748;19;20198;-42
2024/01/05 01:56:38;;;;;;;21.02;8.25;;;;;;;-0.99;100.00;100110.63;7347345;19;20198;-42
2024/01/05 01:59:08;;;;;;;12.13;4.90;;;;;;;-0.91;100.00;100113.75;7325768;19;20270;-41
2024/01/05 02:01:41;;;;;;;9.70;4.70;;;;;;;-0.98;100.00;100102.25;7343835;19;20238;-41
2024/01/05 02:04:16;;;;;;;9.55;4.75;;;;;;;-0.92;100.00;100090.84;7325768;19;20211;-42
2024/01/05 02:06:46;;;;;;;11.75;4.75;;;;;;;-0.91;100.00;100092.59;7347825;19;20219;-42
2024/01/05 02:09:16;;;;;;;13.10;5.20;;;;;;;-0.91;100.00;100087.53;7325679;19;20221;-42
2024/01/05 02:11:46;;;;;;;9.60;4.65;;;;;;;-0.92;100.00;100084.09;7347000;19;20190;-41
2024/01/05 02:14:16;;;;;;;9.95;5.50;;;;;;;-0.89;100.00;100084.34;7326156;19;20230;-42
2024/01/05 02:16:48;;;;;;;16.98;7.50;;;;;;;-0.87;100.00;100084.47;7341547;19;20732;-42
2024/01/05 02:19:18;;;;;;;13.02;5.45;;;;;;;-0.88;100.00;100085.25;7325500;19;20834;-42
2024/01/05 02:21:50;;;;;;;19.42;8.77;;;;;;;-0.89;100.00;100088.50;7346680;19;20691;-43
2024/01/05 02:24:22;;;;;;;9.45;4.65;;;;;;;-0.87;100.00;100081.94;7324594;19;20281;-43
2024/01/05 02:26:52;;;;;;;13.38;5.30;;;;;;;-0.87;100.00;100084.47;7347095;19;20194;-42
2024/01/05 02:29:22;;;;;;;10.40;5.10;;;;;;;-0.87;100.00;100081.94;7325547;19;20194;-41
2024/01/05 02:31:52;;;;;;;16.20;6.47;;;;;;;-0.98;100.00;100076.91;7347292;19;20203;-41
2024/01/05 02:34:21;;;;;;;9.68;5.28;;;;;;;-0.97;100.00;100078.69;7324976;19;20202;-41
2024/01/05 02:36:51;;;;;;;8.60;4.50;;;;;;;-0.91;100.00;100079.94;7347155;19;20194;-42
2024/01/05 02:39:23;;;;;;;11.32;5.03;;;;;;;-0.89;100.00;100075.84;7324769;19;20458;-42
2024/01/05 02:41:53;;;;;;;12.32;5.45;;;;;;;-0.87;100.00;100064.22;7345264;19;20549;-42
2024/01/05 02:44:22;;;;;;;13.60;4.57;;;;;;;-0.91;100.00;100068.16;7351599;19;20208;-43
2024/01/05 02:46:52;;;;;;;12.27;5.13;;;;;;;-0.88;100.00;100054.84;7352899;19;20194;-44
2024/01/05 02:49:22;;;;;;;10.00;5.18;;;;;;;-0.91;100.00;100062.19;7330024;19;20198;-42
2024/01/05 02:51:51;;;;;;;14.07;5.35;;;;;;;-0.90;100.00;100057.25;7351023;19;20725;-42
2024/01/05 02:54:23;;;;;;;11.07;5.20;;;;;;;-0.85;100.00;100055.06;7329916;19;20208;-43
2024/01/05 02:56:53;;;;;;;14.00;4.60;;;;;;;-0.83;100.00;100056.06;7344410;19;20194;-41
2024/01/05 02:59:23;;;;;;;9.73;5.43;;;;;;;-0.83;100.00;100045.91;7350742;19;20399;-44
2024/01/05 03:01:52;;;;;;;12.82;4.60;;;;;;;-0.82;100.00;100047.72;7349346;19;20289;-41
2024/01/05 03:04:22;;;;;;;10.70;5.40;;;;;;;-0.83;100.00;100039.22;7329933;19;20289;-44
2024/01/05 03:06:51;;;;;;;9.77;5.10;;;;;;;-0.91;100.00;100041.94;7351654;19;20201;-40
2024/01/05 03:09:24;;;;;;;12.48;5.88;;;;;;;-0.78;100.00;100047.16;7329246;19;20198;-43
2024/01/05 03:11:53;;;;;;;13.05;6.15;;;;;;;-0.77;100.00;100045.53;7341896;19;20675;-41
2024/01/05 03:14:23;;;;;;;11.18;4.63;;;;;;;-0.80;100.00;100043.63;7350029;19;20206;-43
2024/01/05 03:16:52;;;;;;;11.65;5.40;;;;;;;-0.80;100.00;100041.09;7350469;19;20197;-38
2024/01/05 03:19:22;;;;;;;8.77;5.03;;;;;;;-0.81;100.00;100044.41;7349748;19;20198;-42
2024/01/05 03:21:52;;;;;;;14.88;4.72;;;;;;;-0.81;100.00;100041.88;7349838;19;20257;-45
2024/01/05 03:24:25;;;;;;;11.23;5.20;;;;;;;-0.81;100.00;100046.94;7329212;19;20273;-42
2024/01/05 03:26:54;;;;;;;12.43;5.53;;;;;;;-0.84;100.00;100032.38;7327302;19;20218;-45
2024/01/05 03:29:24;;;;;;;13.88;6.15;;;;;;;-0.89;100.00;100025.19;7349888;19;20225;-41
2024/01/05 03:31:54;;;;;;;10.23;5.05;;;;;;;-0.85;100.00;100024.66;7337477;19;20575;-41
2024/01/05 03:34:24;;;;;;;13.93;5.65;;;;;;;-0.85;100.00;100037.34;7350505;19;20202;-41
2024/01/05 03:36:54;;;;;;;13.13;5.82;;;;;;;-0.83;100.00;100033.25;7338777;19;20277;-43
2024/01/05 03:39:27;;;;;;;11.35;4.70;;;;;;;-0.89;100.00;100027.72;7349353;19;20208;-41
2024/01/05 03:41:57;;;;;;;14.88;5.93;;;;;;;-0.84;100.00;100039.09;7327492;19;20688;-43
2024/01/05 03:44:26;;;;;;;18.73;8.80;;;;;;;-0.87;100.00;100038.88;7348506;19;20212;-42
2024/01/05 03:46:56;;;;;;;28.65;9.85;;;;;;;-0.79;100.00;100042.88;7327392;19;20637;-41
2024/01/05 03:49:26;;;;;;;18.92;6.78;;;;;;;-0.68;100.00;100041.13;7349027;19;20671;-42
2024/01/05 03:51:55;;;;;;;9.25;4.78;;;;;;;-0.69;100.00;100034.31;7327609;19;20257;-41
2024/01/05 03:54:28;;;;;;;10.13;5.13;;;;;;;-0.77;100.00;100025.25;7348457;19;20206;-42
2024/01/05 03:56:57;;;;;;;13.88;5.97;;;;;;;-0.71;100.00;100024.03;7327790;19;20663;-41
2024/01/05 03:59:27;;;;;;;13.38;5.95;;;;;;;-0.65;100.00;100026.19;7348628;19;20628;-42
2024/01/05 04:01:57;;;;;;;13.27;5.35;;;;;;;-0.66;100.00;100021.00;7325863;19;20198;-41
2024/01/05 04:04:26;;;;;;;18.92;7.93;;;;;;;-0.70;100.00;100007.22;7352050;19;20285;-41
2024/01/05 04:06:56;;;;;;;12.75;5.32;;;;;;;-0.71;100.00;100001.25;7334566;19;20908;-42
2024/01/05 04:09:28;;;;;;;12.63;5.18;;;;;;;-0.66;100.00;99999.06;7355027;19;20198;-41
2024/01/05 04:11:58;;;;;;;10.60;5.28;;;;;;;-0.64;100.00;99992.47;7334314;19;20209;-42
2024/01/05 04:14:27;;;;;;;8.65;4.70;;;;;;;-0.64;100.00;99986.50;7355700;19;20272;-41
2024/01/05 04:16:57;;;;;;;14.27;5.47;;;;;;;-0.63;100.00;99975.59;7334543;19;20196;-42
2024/01/05 04:19:29;;;;;;;10.50;5.53;;;;;;;-0.59;100.00;99975.06;7354462;19;20277;-42
2024/01/05 04:21:59;;;;;;;22.88;5.40;;;;;;;-0.56;100.00;99958.41;7334137;19;20248;-42
2024/01/05 04:24:32;;;;;;;20.23;6.97;;;;;;;-0.62;100.00;99952.03;7355742;19;20212;-42
2024/01/05 04:27:02;;;;;;;10.93;5.30;;;;;;;-0.74;100.00;99952.88;7334002;19;20200;-42
2024/01/05 04:29:32;;;;;;;10.88;4.95;;;;;;;-0.75;100.00;99950.22;7353888;19;20194;-41
2024/01/05 04:32:02;;;;;;;17.45;5.80;;;;;;;-0.71;100.00;99965.78;7333565;19;20197;-45
2024/01/05 04:34:32;;;;;;;10.90;5.13;;;;;;;-0.73;100.00;99974.91;7354655;19;20209;-42
2024/01/05 04:37:01;;;;;;;12.32;5.28;;;;;;;-0.68;100.00;99980.31;7333781;19;20577;-42
2024/01/05 04:39:34;;;;;;;11.65;5.10;;;;;;;-0.71;100.00;99982.66;7354293;19;20198;-44
2024/01/05 04:42:03;;;;;;;12.73;5.55;;;;;;;-0.75;100.00;99989.13;7333730;19;20194;-41
2024/01/05 04:44:33;;;;;;;19.85;8.38;;;;;;;-0.64;100.00;99996.63;7353685;19;20206;-41
2024/01/05 04:47:03;;;;;;;8.52;4.43;;;;;;;-0.76;100.00;99997.50;7329372;19;20540;-42
2024/01/05 04:49:33;;;;;;;9.20;4.97;;;;;;;-0.81;100.00;100001.34;7354052;19;20201;-42
2024/01/05 04:52:03;;;;;;;10.50;4.90;;;;;;;-0.78;100.00;100015.88;7333883;19;20198;-41
2024/01/05 04:54:35;;;;;;;9.60;4.88;;;;;;;-0.85;100.00;100028.09;7352828;19;20250;-43
2024/01/05 04:57:06;;;;;;;12.35;5.00;;;;;;;-0.87;100.00;100049.88;7334641;19;20218;-40
2024/01/05 04:59:35;;;;;;;15.70;6.20;;;;;;;-0.86;100.00;100064.31;7353634;19;20198;-42
2024/01/05 05:02:05;;;;;;;23.10;8.38;;;;;;;-0.88;100.00;100087.78;7331439;19;20273;-42
2024/01/05 05:04:35;;;;;;;9.73;4.57;;;;;;;-0.92;100.00;100100.97;7353349;19;20206;-40
2024/01/05 05:07:04;;;;;;;10.25;5.35;;;;;;;-0.91;100.00;100113.75;7333721;19;20705;-41
2024/01/05 05:09:36;;;;;;;11.07;4.40;;;;;;;-0.98;100.00;100137.72;7353971;19;20249;-41
2024/01/05 05:12:07;;;;;;;13.52;5.25;;;;;;;-0.94;100.00;100148.09;7332663;19;20190;-42
2024/01/05 05:14:37;;;;;;;12.63;5.50;;;;;;;-0.88;100.00;100161.25;7352441;19;20228;-42
2024/01/05 05:17:07;;;;;;;13.15;4.25;;;;;;;-0.89;100.00;100182.25;7332876;19;20190;-41
2024/01/05 05:19:36;;;;;;;12.68;5.55;;;;;;;-0.92;100.00;100187.09;7353959;19;20204;-41
2024/01/05 05:22:06;;;;;;;11.05;4.57;;;;;;;-0.86;100.00;100208.69;7332166;19;20194;-42
2024/01/05 05:24:39;;;;;;;14.05;5.78;;;;;;;-0.83;100.00;100223.25;7352777;19;20221;-41
2024/01/05 05:27:08;;;;;;;13.23;5.68;;;;;;;-0.84;100.00;100221.50;7333108;19;20211;-42
2024/01/05 05:29:38;;;;;;;12.20;5.65;;;;;;;-0.84;100.00;100222.38;7352964;19;20198;-41
2024/01/05 05:32:08;;;;;;;16.00;4.53;;;;;;;-0.80;100.00;100218.44;7331375;19;20271;-42
2024/01/05 05:34:37;;;;;;;12.20;5.07;;;;;;;-0.85;100.00;100209.59;7352640;19;20971;-42
2024/01/05 05:37:07;;;;;;;13.20;5.05;;;;;;;-0.91;100.00;100204.03;7331847;19;20692;-43
2024/01/05 05:39:39;;;;;;;12.57;5.65;;;;;;;-0.96;100.00;100211.28;7352809;19;20190;-44
2024/01/05 05:42:09;;;;;;;11.45;5.13;;;;;;;-0.93;100.00;100226.72;7332148;19;20195;-42
2024/01/05 05:44:39;;;;;;;17.40;5.18;;;;;;;-0.92;100.00;100228.47;7352716;19;20675;-42
2024/01/05 05:47:08;;;;;;;14.15;6.00;;;;;;;-0.96;100.00;100227.34;7331933;19;20273;-42
2024/01/05 05:49:38;;;;;;;14.35;6.07;;;;;;;-0.92;100.00;100232.69;7352233;19;20217;-42
2024/01/05 05:52:08;;;;;;;13.90;5.68;;;;;;;-0.86;100.00;100243.28;7331435;19;20187;-42
2024/01/05 05:54:40;;;;;;;12.20;4.78;;;;;;;-1.00;100.00;100243.09;7352826;19;20254;-41
2024/01/05 05:57:11;;;;;;;8.57;4.30;;;;;;;-1.01;100.00;100245.50;7331191;19;20269;-42
2024/01/05 05:59:41;;;;;;;12.02;4.35;;;;;;;-1.02;100.00;100246.25;7352500;19;20224;-43
2024/01/05 06:02:11;;;;;;;9.85;4.50;;;;;;;-1.01;100.00;100243.84;7323181;19;20692;-43
2024/01/05 06:04:40;;;;;;;11.10;4.57;;;;;;;-0.96;100.00;100247.63;7346679;19;20238;-41
2024/01/05 06:07:10;;;;;;;9.57;4.65;;;;;;;-0.99;100.00;100244.84;7324362;19;20194;-41
2024/01/05 06:09:42;;;;;;;12.68;5.03;;;;;;;-0.90;100.00;100241.28;7346291;19;20202;-42
2024/01/05 06:12:12;;;;;;;8.05;3.85;;;;;;;-0.92;100.00;100241.13;7320552;19;20197;-42
2024/01/05 06:14:42;;;;;;;26.50;9.30;;;;;;;-0.90;100.00;100236.22;7345750;19;20198;-42
2024/01/05 06:17:12;;;;;;;11.90;4.95;;;;;;;-0.89;100.00;100237.97;7325006;19;20194;-42
2024/01/05 06:19:41;;;;;;;10.93;4.80;;;;;;;-0.95;100.00;100233.31;7344912;19;20194;-42
2024/01/05 06:22:11;;;;;;;9.00;4.43;;;;;;;-0.97;100.00;100230.66;7323836;19;20190;-41
2024/01/05 06:24:44;;;;;;;9.35;4.00;;;;;;;-0.96;100.00;100244.22;7343295;19;20657;-41
2024/01/05 06:27:14;;;;;;;13.50;4.85;;;;;;;-0.93;100.00;100253.72;7321537;19;20225;-42
2024/01/05 06:29:54;;;;;;;15.25;6.00;;;;;;;-1.00;100.00;100260.81;7338156;19;20230;-41
2024/01/05 06:32:23;;;;;;;9.75;5.28;;;;;;;-1.04;100.00;100256.25;7345551;19;20234;-42
2024/01/05 06:34:53;;;;;;;11.10;4.82;;;;;;;-0.93;100.00;100268.91;7344867;19;20201;-41
2024/01/05 06:37:22;;;;;;;10.00;4.38;;;;;;;-0.94;100.00;100272.22;7323449;19;20186;-41
2024/01/05 06:39:55;;;;;;;11.73;4.45;;;;;;;-0.96;100.00;100272.94;7343755;19;20225;-41
2024/01/05 06:42:24;;;;;;;7.88;4.30;;;;;;;-1.02;100.00;100267.38;7323400;19;20189;-41
2024/01/05 06:44:54;;;;;;;9.63;4.70;;;;;;;-0.99;100.00;100277.78;7334095;19;20218;-41
2024/01/05 06:47:25;;;;;;;13.52;4.57;;;;;;;-1.04;100.00;100268.91;7342577;19;20192;-43
2024/01/05 06:49:55;;;;;;;7.20;3.90;;;;;;;-1.06;100.00;100267.94;7325858;19;21068;-41
2024/01/05 06:52:24;;;;;;;10.05;4.50;;;;;;;-1.08;100.00;100282.09;7344425;19;20555;-42
2024/01/05 06:54:57;;;;;;;10.45;4.40;;;;;;;-1.06;100.00;100284.75;7332492;19;20194;-40
2024/01/05 06:57:28;;;;;;;11.90;5.22;;;;;;;-1.10;100.00;100276.03;7342968;19;20265;-42
2024/01/05 06:59:58;;;;;;;10.32;4.38;;;;;;;-1.10;100.00;100276.03;7320998;19;20710;-43
2024/01/05 07:02:28;;;;;;;8.30;3.75;;;;;;;-1.09;100.00;100285.38;7342685;19;20194;-42
2024/01/05 07:04:58;;;;;;;9.68;4.60;;;;;;;-1.11;100.00;100284.38;7320874;19;20210;-42
2024/01/05 07:07:28;;;;;;;11.48;4.80;;;;;;;-1.15;100.00;100285.78;7343825;19;20198;-41
2024/01/05 07:10:00;;;;;;;10.32;4.65;;;;;;;-1.16;100.00;100290.72;7323403;19;20257;-41
2024/01/05 07:12:30;;;;;;;9.90;3.35;;;;;;;-1.18;100.00;100294.78;7342513;19;20186;-41
2024/01/05 07:15:00;;;;;;;10.40;4.30;;;;;;;-1.13;100.00;100303.66;7322765;19;20198;-42
2024/01/05 07:17:30;;;;;;;9.25;4.00;;;;;;;-1.14;100.00;100297.69;7344935;19;20190;-41
2024/01/05 07:20:00;;;;;;;12.90;5.15;;;;;;;-1.13;100.00;100308.72;7321190;19;20186;-42
2024/01/05 07:22:29;;;;;;;9.00;4.40;;;;;;;-1.18;100.00;100315.03;7343740;19;20190;-42
2024/01/05 07:25:01;;;;;;;9.05;3.85;;;;;;;-1.19;100.00;100314.13;7321086;19;20289;-41
2024/01/05 07:27:32;;;;;;;8.75;4.53;;;;;;;-1.20;100.00;100308.94;7343613;19;20928;-46
2024/01/05 07:30:01;;;;;;;9.40;4.20;;;;;;;-1.18;100.00;100315.91;7322181;19;20194;-42
2024/01/05 07:32:31;;;;;;;10.82;4.28;;;;;;;-1.25;100.00;100314.53;7343533;19;20193;-41
2024/01/05 07:35:03;;;;;;;9.07;4.18;;;;;;;-1.27;100.00;100318.56;7321146;19;20733;-42
2024/01/05 07:37:33;;;;;;;13.57;6.25;;;;;;;-1.23;100.00;100318.06;7342378;19;20186;-44
2024/01/05 07:40:06;;;;;;;7.72;4.18;;;;;;;-1.26;100.00;100322.91;7321843;19;20265;-43
2024/01/05 07:42:35;;;;;;;8.70;3.50;;;;;;;-1.25;100.00;100327.19;7343155;19;20253;-42
2024/01/05 07:45:06;;;;;;;6.10;3.10;;;;;;;-1.27;100.00;100331.22;7320850;19;20204;-42
2024/01/05 07:47:36;;;;;;;9.65;4.50;;;;;;;-1.29;100.00;100332.75;7343270;19;20186;-40
2024/01/05 07:50:06;;;;;;;8.10;4.00;;;;;;;-1.29;100.00;100327.69;7321130;19;20577;-42
2024/01/05 07:52:38;;;;;;;8.05;3.92;;;;;;;-1.28;100.00;100319.34;7342750;19;20190;-41
2024/01/05 07:55:11;;;;;;;6.95;3.45;;;;;;;-1.29;100.00;100324.28;7320794;19;20190;-41
2024/01/05 07:57:40;;;;;;;7.50;3.28;;;;;;;-1.32;100.00;100306.31;7342772;19;20264;-42
2024/01/05 08:00:14;;;;;;;11.40;4.25;;;;;;;-1.31;100.00;100308.97;7317559;19;20194;-41
2024/01/05 08:02:43;;;;;;;9.02;3.92;;;;;;;-1.37;100.00;100303.41;7340562;19;20207;-41
2024/01/05 08:05:13;;;;;;;8.38;3.95;;;;;;;-1.33;100.00;100302.91;7319537;19;20297;-41
2024/01/05 08:07:46;;;;;;;10.45;3.85;;;;;;;-1.32;100.00;100298.72;7343098;19;20208;-40
2024/01/05 08:10:18;;;;;;;7.80;3.53;;;;;;;-1.35;100.00;100294.28;7323298;19;20208;-41
2024/01/05 08:12:48;;;;;;;8.23;4.05;;;;;;;-1.25;100.00;100294.28;7347077;19;20265;-41
2024/01/05 08:15:18;;;;;;;6.30;3.85;;;;;;;-1.30;100.00;100290.47;7326054;19;20584;-41
2024/01/05 08:17:47;;;;;;;8.52;3.33;;;;;;;-1.34;100.00;100293.50;7347684;19;20229;-41
2024/01/05 08:20:17;;;;;;;8.52;4.10;;;;;;;-1.32;100.00;100292.00;7326390;19;20194;-43
2024/01/05 08:22:47;;;;;;;8.32;5.18;;;;;;;-1.28;100.00;100291.47;7347617;19;20198;-44
2024/01/05 08:25:19;;;;;;;8.57;4.70;;;;;;;-1.17;100.00;100287.31;7324843;19;20616;-44
2024/01/05 08:27:52;;;;;;;7.75;3.78;;;;;;;-1.13;100.00;100301.13;7347485;19;20201;-40
2024/01/05 08:30:22;;;;;;;5.93;3.08;;;;;;;-1.17;100.00;100283.88;7326755;19;20194;-41
2024/01/05 08:32:54;;;;;;;7.85;3.58;;;;;;;-1.15;100.00;100279.81;7347597;19;20565;-42
2024/01/05 08:35:25;;;;;;;7.97;4.20;;;;;;;-1.24;100.00;100263.13;7326168;19;20201;-41
2024/01/05 08:37:57;;;;;;;10.85;3.83;;;;;;;-1.11;100.00;100243.88;7325709;19;20261;-41
2024/01/05 08:40:30;;;;;;;8.82;3.83;;;;;;;-1.10;100.00;100243.09;7346863;19;20282;-43
2024/01/05 08:43:09;;;;;;;6.32;3.25;;;;;;;-1.14;100.00;100233.47;7325952;19;20194;-43
2024/01/05 08:45:45;;;;;;;6.88;3.40;;;;;;;-1.20;100.00;100228.81;7347156;19;20217;-41
2024/01/05 08:48:16;;;;;;;6.93;3.03;;;;;;;-1.17;100.00;100225.66;7325278;19;20187;-42
2024/01/05 08:50:46;;;;;;;6.95;3.92;;;;;;;-1.19;100.00;100215.41;7352165;19;20202;-41
2024/01/05 08:53:15;;;;;;;7.80;3.83;;;;;;;-1.20;100.00;100225.38;7332731;19;20215;-41
2024/01/05 08:55:48;;;;;;;6.60;3.78;;;;;;;-1.27;100.00;100217.31;7353862;19;20198;-43
2024/01/05 08:58:17;;;;;;;6.32;3.70;;;;;;;-1.27;100.00;100213.91;7331708;19;20201;-41
2024/01/05 09:00:47;;;;;;;7.80;3.45;;;;;;;-1.23;100.00;100214.25;7352547;19;20560;-42
2024/01/05 09:03:17;;;;;;;6.82;2.70;;;;;;;-1.29;100.00;100215.44;7332449;19;20194;-41
2024/01/05 09:05:48;;;;;;;7.07;3.88;;;;;;;-1.25;100.00;100218.34;7353019;19;20211;-42
2024/01/05 09:08:18;;;;;;;7.22;3.40;;;;;;;-1.19;100.00;100224.66;7331858;19;20194;-41
2024/01/05 09:10:50;;;;;;;9.35;4.60;;;;;;;-1.16;100.00;100217.28;7353587;19;20655;-41
2024/01/05 09:13:20;;;;;;;5.20;2.72;;;;;;;-1.13;100.00;100207.41;7332734;19;20309;-43
2024/01/05 09:15:49;;;;;;;6.28;3.50;;;;;;;-1.17;100.00;100202.88;7354017;19;20197;-41
2024/01/05 09:18:19;;;;;;;5.90;2.80;;;;;;;-1.19;100.00;100196.81;7331867;19;20694;-40
2024/01/05 09:20:49;;;;;;;6.20;2.97;;;;;;;-1.15;100.00;100179.44;7353548;19;20194;-42
2024/01/05 09:23:19;;;;;;;6.28;2.85;;;;;;;-1.12;100.00;100169.53;7332554;19;20301;-41
2024/01/05 09:25:51;;;;;;;6.25;3.45;;;;;;;-1.15;100.00;100158.28;7353508;19;20229;-42
2024/01/05 09:28:20;;;;;;;7.57;3.65;;;;;;;-1.15;100.00;100135.50;7332705;19;20194;-44
2024/01/05 09:30:50;;;;;;;9.68;3.25;;;;;;;-1.16;100.00;100108.41;7353807;19;20198;-43
2024/01/05 09:33:24;;;;;;;6.78;2.83;;;;;;;-1.04;100.00;100094.19;7331991;19;20292;-43
2024/01/05 09:35:54;;;;;;;6.03;2.38;;;;;;;-1.07;100.00;100075.31;7347727;19;20198;-41
2024/01/05 09:38:23;;;;;;;7.75;3.15;;;;;;;-1.04;100.00;100057.84;7352140;19;20198;-42
2024/01/05 09:40:56;;;;;;;4.50;2.60;;;;;;;-1.13;100.00;100045.38;7352938;19;20215;-41
2024/01/05 09:43:26;;;;;;;4.85;2.80;;;;;;;-1.13;100.00;100017.50;7331868;19;20718;-42
2024/01/05 09:45:58;;;;;;;4.32;2.75;;;;;;;-1.15;100.00;100016.50;7331259;19;20253;-41
2024/01/05 09:48:28;;;;;;;5.78;2.80;;;;;;;-1.15;100.00;100006.34;7351560;19;20198;-41
2024/01/05 09:51:09;;;;;;;4.50;2.25;;;;;;;-1.24;100.00;99983.75;7331109;19;20218;-40
2024/01/05 09:53:39;;;;;;;11.98;3.83;;;;;;;-1.18;100.00;99970.69;7352558;19;20692;-41
2024/01/05 09:56:11;;;;;;;4.68;2.55;;;;;;;-1.13;100.00;99957.59;7331330;19;20198;-41
2024/01/05 09:58:41;;;;;;;5.43;3.10;;;;;;;-1.18;100.00;99947.91;7351820;19;20693;-41
2024/01/05 10:01:17;;;;;;;5.93;2.45;;;;;;;-1.18;100.00;99937.78;7326593;19;20203;-43
2024/01/05 10:03:50;;;;;;;6.10;2.80;;;;;;;-1.24;100.00;99911.22;7351551;19;20231;-42
2024/01/05 10:06:20;;;;;;;6.05;2.78;;;;;;;-1.23;100.00;99922.25;7330644;19;20191;-43
2024/01/05 10:08:49;;;;;;;5.30;2.97;;;;;;;-1.30;100.00;99905.72;7351044;19;20194;-40
2024/01/05 10:11:30;;;;;;;3.75;1.73;;;;;;;-1.29;100.00;99893.94;7331158;19;20202;-41
2024/01/05 10:14:07;;;;;;;6.05;2.45;;;;;;;-1.41;100.00;99886.28;7329997;19;20219;-41
2024/01/05 10:16:37;;;;;;;4.90;2.30;;;;;;;-1.43;100.00;99877.72;7351494;19;20202;-43
2024/01/05 10:19:15;;;;;;;5.18;2.47;;;;;;;-1.35;100.00;99871.56;7329712;19;20540;-41
2024/01/05 10:21:46;;;;;;;4.38;2.22;;;;;;;-1.32;100.00;99876.88;7351772;19;20565;-41
2024/01/05 10:24:17;;;;;;;4.85;2.30;;;;;;;-1.33;100.00;99859.94;7329312;19;20285;-41
2024/01/05 10:27:04;;;;;;;7.13;2.80;;;;;;;-1.33;100.00;99856.50;7351219;19;20572;-40
2024/01/05 10:29:35;;;;;;;4.13;1.85;;;;;;;-1.38;100.00;99851.97;7329469;19;20682;-40
2024/01/05 10:32:18;;;;;;;5.20;2.47;;;;;;;-1.42;100.00;99855.06;7329674;19;20201;-40
2024/01/05 10:34:49;;;;;;;4.10;2.25;;;;;;;-1.42;100.00;99864.28;7350120;19;20643;-41
2024/01/05 10:37:21;;;;;;;3.65;2.42;;;;;;;-1.45;100.00;99854.81;7330016;19;20198;-42
2024/01/05 10:39:53;;;;;;;5.20;2.60;;;;;;;-1.45;100.00;99853.94;7350632;19;20235;-41
2024/01/05 10:42:27;;;;;;;3.50;2.25;;;;;;;-1.50;100.00;99848.50;7330509;19;20201;-42
2024/01/05 10:44:59;;;;;;;3.28;2.10;;;;;;;-1.42;100.00;99854.16;7329713;19;20206;-41
2024/01/05 10:47:31;;;;;;;3.92;2.00;;;;;;;-1.47;100.00;99845.34;7350351;19;20269;-41
2024/01/05 10:50:01;;;;;;;3.83;2.08;;;;;;;-1.45;100.00;99834.56;7328896;19;20193;-41
2024/01/05 10:52:32;;;;;;;4.50;2.40;;;;;;;-1.53;100.00;99836.50;7350362;19;20675;-41
2024/01/05 10:55:03;;;;;;;4.38;2.30;;;;;;;-1.41;100.00;99828.06;7328803;19;20232;-42
2024/01/05 10:57:38;;;;;;;6.45;2.63;;;;;;;-1.33;100.00;99828.66;7350658;19;20264;-41
2024/01/05 11:00:09;;;;;;;3.33;1.92;;;;;;;-1.30;100.00;99828.88;7327720;19;20194;-43
2024/01/05 11:02:41;;;;;;;3.75;2.38;;;;;;;-1.45;100.00;99823.56;7350368;19;20208;-42
2024/01/05 11:05:13;;;;;;;5.95;2.67;;;;;;;-1.39;100.00;99831.63;7329015;19;20212;-44
2024/01/05 11:07:44;;;;;;;4.28;2.40;;;;;;;-1.41;100.00;99826.44;7348833;19;20202;-43
2024/01/05 11:10:24;;;;;;;5.28;2.53;;;;;;;-1.43;100.00;99816.97;7330416;19;20203;-41
2024/01/05 11:13:09;;;;;;;7.05;3.08;;;;;;;-1.47;100.00;99815.88;7350083;19;20201;-47
2024/01/05 11:15:51;;;;;;;4.85;2.25;;;;;;;-1.50;100.00;99801.31;7329640;19;20204;-42
2024/01/05 11:18:37;;;;;;;4.25;1.95;;;;;;;-1.54;100.00;99795.94;7328073;19;20194;-44
2024/01/05 11:21:11;;;;;;;3.72;2.42;;;;;;;-1.42;100.00;99803.53;7328797;19;20293;-44
2024/01/05 11:23:42;;;;;;;4.35;2.13;;;;;;;-1.34;100.00;99810.03;7349420;19;20670;-41
2024/01/05 11:26:34;;;;;;;4.43;2.30;;;;;;;-1.42;100.00;99799.38;7329142;19;20277;-41
2024/01/05 11:29:07;;;;;;;5.13;2.67;;;;;;;-1.43;100.00;99792.53;7327862;19;20565;-44
2024/01/05 11:31:55;;;;;;;4.95;2.33;;;;;;;-1.38;100.00;99797.94;7350316;19;20204;-45